Time;durP1;ratioP1;P1;durP2;ratioP2;P2;SDS_P1;SDS_P2;PMS_P1;PMS_P2;Temp;Humidity;BMP_temperature;BMP_pressure;BME280_temperature;BME280_humidity;BME280_pressure;Samples;Min_cycle;Max_cycle;Signal;HPM_P1;HPM_P2
2021/12/17 00:04:50;;;;;;;14.52;7.18;;;;;;;4.96;97.29;101622.47;4419798;32;20206;-71
2021/12/17 00:07:19;;;;;;;10.60;6.22;;;;;;;4.79;97.72;101616.72;4419726;32;20459;-71
2021/12/17 00:09:48;;;;;;;23.15;9.50;;;;;;;4.65;98.25;101611.06;4419883;32;20566;-72
2021/12/17 00:12:18;;;;;;;10.95;6.03;;;;;;;4.60;98.68;101604.81;4420004;32;20442;-71
2021/12/17 00:14:48;;;;;;;23.40;9.10;;;;;;;4.46;99.15;101616.53;4419632;32;20127;-71
2021/12/17 00:17:22;;;;;;;10.32;6.43;;;;;;;4.46;99.07;101619.13;4419578;32;20157;-71
2021/12/17 00:53:01;;;;;;;6.53;4.05;;;;;;;4.75;89.70;101537.41;4421795;32;20577;-71
2021/12/17 00:55:29;;;;;;;4.12;2.15;;;;;;;4.77;88.98;101526.97;4421790;32;20129;-71
2021/12/17 00:57:58;;;;;;;7.22;4.40;;;;;;;4.80;88.56;101521.84;4421600;32;20088;-71
2021/12/17 01:00:26;;;;;;;5.25;3.50;;;;;;;4.67;89.12;101530.19;4421631;32;20090;-72
2021/12/17 01:02:54;;;;;;;7.18;3.55;;;;;;;4.76;88.08;101518.28;4421814;32;20089;-71
2021/12/17 01:05:25;;;;;;;4.40;3.03;;;;;;;4.75;87.56;101513.91;4421862;32;20124;-71
2021/12/17 01:07:56;;;;;;;3.85;2.58;;;;;;;4.86;86.52;101508.13;4421815;32;20085;-71
2021/12/17 01:10:31;;;;;;;4.57;3.17;;;;;;;4.77;86.77;101530.50;4421671;32;20077;-71
2021/12/17 01:13:01;;;;;;;5.40;3.58;;;;;;;4.77;86.54;101530.50;4421982;32;20119;-71
2021/12/17 01:15:30;;;;;;;5.50;3.47;;;;;;;4.70;86.38;101545.91;4421661;32;20102;-71
2021/12/17 01:18:05;;;;;;;5.55;3.70;;;;;;;4.68;86.52;101551.09;4421713;32;20823;-71
2021/12/17 01:37:01;;;;;;;7.37;3.17;;;;;;;4.69;85.32;101518.94;4421584;32;20089;-71
2021/12/17 01:42:20;;;;;;;6.57;2.65;;;;;;;4.62;85.45;101516.09;4421423;32;20429;-71
2021/12/17 01:44:47;;;;;;;4.97;3.58;;;;;;;4.58;85.25;101525.56;4421164;32;20421;-71
2021/12/17 01:47:15;;;;;;;6.90;3.75;;;;;;;4.50;85.27;101485.28;4421224;32;20093;-71
2021/12/17 02:00:43;;;;;;;4.80;3.40;;;;;;;4.67;81.49;101523.22;4421316;32;20180;-71
2021/12/17 02:03:14;;;;;;;5.78;3.12;;;;;;;4.69;81.40;101524.16;4421250;32;20125;-71
2021/12/17 02:05:43;;;;;;;6.40;3.58;;;;;;;4.61;81.53;101520.44;4421069;32;20527;-71
2021/12/17 02:08:11;;;;;;;4.05;2.67;;;;;;;4.57;81.67;101518.56;4421172;32;20097;-71
2021/12/17 02:30:45;;;;;;;3.85;2.37;;;;;;;4.40;80.65;101480.63;4420826;32;20102;-71
2021/12/17 02:32:54;;;;;;;2.92;2.62;;;;;;;4.37;80.46;101452.69;4418980;32;20140;-71
2021/12/17 02:37:55;;;;;;;6.00;2.70;;;;;;;4.39;79.78;101471.03;4420800;32;20422;-71
2021/12/17 02:45:48;;;;;;;9.95;3.33;;;;;;;4.47;78.99;101451.28;4420894;32;20081;-71
2021/12/17 02:48:23;;;;;;;6.35;2.83;;;;;;;4.45;79.13;101463.38;4420687;32;20455;-71
2021/12/17 02:50:57;;;;;;;3.50;3.03;;;;;;;4.54;78.64;101469.75;4406603;32;20177;-71
2021/12/17 02:53:26;;;;;;;4.47;2.60;;;;;;;4.64;78.33;101473.53;4420804;32;20106;-71
2021/12/17 02:56:00;;;;;;;5.53;2.83;;;;;;;4.65;78.39;101492.69;4420103;32;20164;-71
2021/12/17 02:58:30;;;;;;;5.75;3.17;;;;;;;4.62;78.50;101487.37;4420540;32;20111;-71
2021/12/17 03:00:59;;;;;;;3.37;2.83;;;;;;;4.57;78.73;101488.97;4420558;32;20135;-71
2021/12/17 03:03:31;;;;;;;4.93;2.47;;;;;;;4.53;79.00;101494.09;4420670;32;20409;-71
2021/12/17 03:05:58;;;;;;;4.75;2.30;;;;;;;4.46;79.30;101484.31;4420606;32;20094;-71
2021/12/17 03:08:26;;;;;;;4.00;2.85;;;;;;;4.48;79.40;101507.84;4420542;32;20168;-71
2021/12/17 03:10:54;;;;;;;9.18;3.70;;;;;;;4.46;79.50;101493.88;4405882;32;20168;-71
2021/12/17 03:13:25;;;;;;;6.03;3.00;;;;;;;4.45;79.60;101493.00;4420354;32;20124;-71
2021/12/17 03:23:52;;;;;;;6.82;3.37;;;;;;;4.29;81.10;101498.56;4420252;32;20124;-71
2021/12/17 03:26:23;;;;;;;6.97;3.83;;;;;;;4.31;82.00;101495.16;4420414;32;20081;-71
2021/12/17 03:28:53;;;;;;;10.50;4.90;;;;;;;4.18;83.30;101493.00;4420276;32;20152;-71
2021/12/17 03:31:22;;;;;;;7.32;4.22;;;;;;;4.14;84.88;101498.97;4420341;32;20094;-71
2021/12/17 03:33:58;;;;;;;9.68;4.68;;;;;;;4.20;86.00;101506.09;4420347;32;20132;-72
2021/12/17 03:36:27;;;;;;;13.65;5.30;;;;;;;4.25;87.08;101512.34;4420370;32;20074;-71
2021/12/17 03:38:55;;;;;;;12.13;5.57;;;;;;;4.27;87.17;101521.09;4420052;32;20509;-71
2021/12/17 03:41:29;;;;;;;10.02;5.70;;;;;;;4.06;88.67;101523.88;4420202;32;20093;-71
2021/12/17 03:43:56;;;;;;;11.93;4.70;;;;;;;4.17;89.20;101525.16;4420350;32;20471;-71
2021/12/17 03:46:24;;;;;;;12.43;6.43;;;;;;;4.20;89.37;101520.00;4420264;32;20088;-71
2021/12/17 03:48:52;;;;;;;11.85;6.05;;;;;;;4.26;89.39;101511.50;4420143;32;20209;-71
2021/12/17 03:51:20;;;;;;;10.07;5.62;;;;;;;4.24;89.71;101529.72;4419937;31;20124;-71
2021/12/17 03:53:51;;;;;;;17.45;7.07;;;;;;;4.20;89.89;101513.91;4419908;32;20168;-71
2021/12/17 03:56:20;;;;;;;10.88;6.00;;;;;;;4.16;90.18;101514.66;4420089;32;20077;-71
2021/12/17 03:58:52;;;;;;;10.75;6.03;;;;;;;4.20;90.04;101506.97;4419974;32;20361;-71
2021/12/17 04:01:21;;;;;;;13.90;7.30;;;;;;;4.13;90.11;101489.34;4419958;32;20578;-71
2021/12/17 04:03:49;;;;;;;12.88;6.40;;;;;;;4.11;90.14;101501.47;4419759;32;20414;-71
2021/12/17 04:06:19;;;;;;;11.65;6.87;;;;;;;4.16;89.74;101515.53;4419875;32;20120;-71
2021/12/17 04:08:48;;;;;;;10.50;6.80;;;;;;;4.12;89.71;101508.44;4421513;32;20106;-71
2021/12/17 04:11:19;;;;;;;14.95;6.78;;;;;;;4.12;89.32;101511.06;4422355;32;20517;-71
2021/12/17 04:13:55;;;;;;;15.25;7.53;;;;;;;4.06;89.49;101531.72;4422395;32;20108;-71
2021/12/17 04:16:27;;;;;;;13.18;7.55;;;;;;;4.04;89.40;101525.59;4422341;32;20097;-71
2021/12/17 04:18:54;;;;;;;11.30;6.47;;;;;;;3.88;90.15;101524.16;4422013;32;20137;-71
2021/12/17 04:21:22;;;;;;;17.42;7.43;;;;;;;3.86;90.29;101538.91;4422230;32;20124;-71
2021/12/17 04:23:52;;;;;;;16.80;7.53;;;;;;;3.84;90.19;101550.97;4422317;32;20172;-71
2021/12/17 04:26:22;;;;;;;16.12;7.25;;;;;;;3.76;90.41;101536.81;4421962;32;20470;-71
2021/12/17 04:28:53;;;;;;;12.18;6.45;;;;;;;3.73;90.59;101540.19;4422248;32;20484;-71
2021/12/17 04:31:26;;;;;;;13.13;6.75;;;;;;;3.80;90.19;101563.03;4422032;32;20487;-71
2021/12/17 04:33:54;;;;;;;8.13;4.28;;;;;;;3.77;90.15;101560.31;4421913;32;20101;-71
2021/12/17 04:36:28;;;;;;;14.35;6.82;;;;;;;3.76;90.32;101570.69;4422140;32;20135;-71
2021/12/17 04:38:57;;;;;;;8.63;4.85;;;;;;;3.80;89.98;101572.56;4422099;32;20093;-71
2021/12/17 04:46:36;;;;;;;10.98;5.60;;;;;;;3.70;90.37;101578.28;4422030;32;20144;-71
2021/12/17 05:00:10;;;;;;;12.70;6.78;;;;;;;3.66;90.64;101579.03;4422103;32;20207;-71
2021/12/17 05:02:44;;;;;;;12.27;5.85;;;;;;;3.59;90.92;101570.09;4420178;32;20147;-71
2021/12/17 05:05:14;;;;;;;15.07;7.10;;;;;;;3.63;90.73;101568.47;4421670;32;20105;-71
2021/12/17 05:07:48;;;;;;;12.90;6.32;;;;;;;3.61;90.86;101563.22;4421891;32;20119;-71
2021/12/17 05:18:34;;;;;;;12.60;6.28;;;;;;;3.66;90.44;101516.47;4420919;32;20085;-71
2021/12/17 05:21:07;;;;;;;8.18;5.15;;;;;;;3.70;89.98;101521.81;4421281;32;20078;-71
2021/12/17 05:23:40;;;;;;;14.27;6.10;;;;;;;3.80;89.52;101504.78;4421660;32;20131;-71
2021/12/17 05:26:11;;;;;;;14.25;6.40;;;;;;;3.79;89.41;101498.69;4421629;32;20109;-71
2021/12/17 05:28:41;;;;;;;9.52;6.05;;;;;;;3.77;89.58;101509.88;4421276;32;20172;-71
2021/12/17 05:31:09;;;;;;;7.53;3.55;;;;;;;3.76;89.30;101519.44;4421710;32;20128;-71
2021/12/17 05:33:37;;;;;;;11.38;5.28;;;;;;;3.79;89.29;101529.09;4421420;32;20505;-71
2021/12/17 05:36:05;;;;;;;15.18;6.25;;;;;;;3.75;89.42;101525.50;4421637;32;20963;-71
2021/12/17 05:38:34;;;;;;;6.93;4.20;;;;;;;3.76;89.21;101516.81;4424941;32;20421;-71
2021/12/17 05:41:01;;;;;;;5.90;3.67;;;;;;;3.77;89.29;101525.53;4436612;31;20102;-71
2021/12/17 05:43:35;;;;;;;14.73;5.50;;;;;;;3.74;89.28;101522.81;4421972;32;20173;-72
2021/12/17 05:46:11;;;;;;;9.20;5.00;;;;;;;3.75;89.09;101516.78;4436864;32;20125;-72
2021/12/17 05:48:41;;;;;;;7.70;4.70;;;;;;;3.73;89.08;101516.72;4437412;32;20107;-71
2021/12/17 05:51:10;;;;;;;7.18;4.93;;;;;;;3.68;89.39;101520.91;4422666;31;20097;-71
2021/12/17 05:53:38;;;;;;;7.18;4.25;;;;;;;3.63;89.65;101539.81;4421318;32;20097;-71
2021/12/17 05:56:05;;;;;;;9.95;5.85;;;;;;;3.61;89.67;101538.87;4421072;32;20102;-71
2021/12/17 05:58:38;;;;;;;9.95;4.80;;;;;;;3.57;89.69;101550.94;4421284;32;20493;-71
2021/12/17 06:01:05;;;;;;;8.57;4.37;;;;;;;3.49;89.99;101544.53;4421311;32;20119;-71
2021/12/17 06:03:34;;;;;;;12.37;6.18;;;;;;;3.50;89.80;101543.72;4420781;32;20097;-72
2021/12/17 06:06:02;;;;;;;8.52;5.53;;;;;;;3.41;90.11;101532.97;4421027;32;20104;-72
2021/12/17 06:08:30;;;;;;;8.70;5.50;;;;;;;3.39;90.31;101530.28;4421067;32;20119;-72
2021/12/17 06:10:58;;;;;;;8.52;4.25;;;;;;;3.49;89.57;101521.09;4420483;32;20105;-72
2021/12/17 06:13:25;;;;;;;8.52;4.85;;;;;;;3.49;89.58;101519.38;4420082;32;20101;-72
2021/12/17 06:15:54;;;;;;;10.82;5.80;;;;;;;3.45;89.62;101529.63;4420658;32;20113;-71
2021/12/17 06:18:21;;;;;;;8.63;5.30;;;;;;;3.46;89.60;101536.59;4417972;32;101732;-71
2021/12/17 06:20:49;;;;;;;7.25;3.90;;;;;;;3.47;89.26;101552.31;4420383;32;20096;-71
2021/12/17 06:23:16;;;;;;;7.18;4.87;;;;;;;3.45;89.42;101547.88;4421599;32;20094;-72
2021/12/17 06:25:43;;;;;;;12.35;5.45;;;;;;;3.48;89.11;101545.37;4420919;32;20101;-71
2021/12/17 06:28:11;;;;;;;5.45;4.28;;;;;;;3.46;89.14;101545.31;4421041;32;20093;-72
2021/12/17 06:30:38;;;;;;;7.22;3.53;;;;;;;3.50;88.73;101535.91;4420300;32;20418;-72
2021/12/17 06:33:06;;;;;;;6.80;4.20;;;;;;;3.48;88.78;101530.62;4420695;32;20492;-72
2021/12/17 06:35:34;;;;;;;5.22;3.37;;;;;;;3.46;88.68;101532.28;4420849;32;20375;-72
2021/12/17 06:38:04;;;;;;;7.03;4.03;;;;;;;3.47;88.49;101544.50;4426692;32;20119;-72
2021/12/17 06:40:32;;;;;;;6.15;4.57;;;;;;;3.50;88.26;101534.19;4435922;32;20489;-72
2021/12/17 06:43:00;;;;;;;7.47;4.15;;;;;;;3.48;88.36;101542.78;4435960;32;20127;-72
2021/12/17 06:48:10;;;;;;;7.82;3.78;;;;;;;3.45;88.46;101553.09;4431826;32;20078;-72
2021/12/17 06:56:58;;;;;;;10.80;5.25;;;;;;;3.40;88.53;101544.22;4436072;32;20180;-72
2021/12/17 07:10:42;;;;;;;6.60;4.22;;;;;;;3.39;88.52;101547.66;4435892;32;20108;-73
2021/12/17 07:35:12;;;;;;;12.27;5.20;;;;;;;3.64;87.12;101591.09;4435592;32;20090;-72
2021/12/17 07:40:10;;;;;;;7.87;4.62;;;;;;;3.73;86.82;101592.31;4433865;32;20188;-71
2021/12/17 07:42:38;;;;;;;9.30;4.40;;;;;;;3.78;86.61;101616.84;4432404;32;20081;-71
2021/12/17 07:45:07;;;;;;;7.28;4.57;;;;;;;3.77;86.82;101603.75;4429163;31;20127;-72
2021/12/17 07:47:35;;;;;;;12.30;5.75;;;;;;;3.77;86.27;101604.62;4435235;32;20459;-71
2021/12/17 07:50:05;;;;;;;9.73;3.47;;;;;;;3.80;86.57;101616.87;4430556;32;20113;-71
2021/12/17 07:52:35;;;;;;;8.30;4.93;;;;;;;3.86;86.22;101605.81;4431223;32;20089;-72
2021/12/17 07:55:02;;;;;;;6.12;3.47;;;;;;;3.83;86.26;101604.84;4428463;32;20159;-71
2021/12/17 07:57:30;;;;;;;7.68;4.10;;;;;;;3.91;85.92;101618.16;4430268;32;20097;-71
2021/12/17 07:59:57;;;;;;;9.65;4.35;;;;;;;3.94;85.67;101627.81;4426217;31;20105;-72
2021/12/17 08:02:24;;;;;;;11.80;5.12;;;;;;;3.99;85.35;101632.34;4427974;31;20105;-70
2021/12/17 08:04:55;;;;;;;5.93;3.37;;;;;;;4.02;85.16;101634.16;4432346;32;20092;-72
2021/12/17 08:07:22;;;;;;;12.37;5.05;;;;;;;4.06;84.80;101623.00;4427368;32;20508;-72
2021/12/17 08:09:52;;;;;;;9.73;4.87;;;;;;;4.11;84.68;101618.84;4429170;32;20457;-73
2021/12/17 08:12:20;;;;;;;10.05;4.87;;;;;;;4.15;84.32;101622.44;4436603;32;20073;-72
2021/12/17 08:14:48;;;;;;;10.32;4.50;;;;;;;4.18;84.30;101610.38;4435989;32;20109;-72
2021/12/17 08:32:44;;;;;;;9.38;4.35;;;;;;;4.34;83.13;101616.09;4435739;32;20114;-74
2021/12/17 08:35:12;;;;;;;15.23;6.43;;;;;;;4.41;82.93;101613.75;4436449;32;20509;-73
2021/12/17 08:37:40;;;;;;;6.87;4.68;;;;;;;4.43;82.43;101613.81;4429333;32;20128;-73
2021/12/17 08:40:09;;;;;;;7.07;4.93;;;;;;;4.48;82.39;101609.63;4428539;32;20131;-73
2021/12/17 08:42:37;;;;;;;7.15;4.35;;;;;;;4.50;82.07;101634.94;4436304;31;20574;-73
2021/12/17 08:45:07;;;;;;;10.93;5.57;;;;;;;4.59;81.76;101639.56;4436254;32;20113;-73
2021/12/17 08:47:40;;;;;;;8.02;3.35;;;;;;;4.68;81.70;101642.47;4437185;32;20173;-73
2021/12/17 08:50:11;;;;;;;9.48;4.28;;;;;;;4.69;81.15;101646.84;4436557;31;20714;-72
2021/12/17 08:52:40;;;;;;;8.05;4.07;;;;;;;4.75;81.18;101654.00;4435683;32;20496;-72
2021/12/17 08:55:12;;;;;;;4.47;2.87;;;;;;;4.77;80.79;101657.53;4434766;32;20089;-72
2021/12/17 08:57:42;;;;;;;5.80;3.72;;;;;;;4.83;80.57;101647.31;4435628;32;20109;-72
2021/12/17 09:00:12;;;;;;;5.87;3.53;;;;;;;4.81;80.76;101646.38;4435667;32;20093;-72
2021/12/17 09:02:42;;;;;;;7.78;3.30;;;;;;;4.88;80.60;101644.84;4435262;32;20128;-73
2021/12/17 09:05:11;;;;;;;6.60;3.60;;;;;;;4.89;80.18;101636.19;4435701;32;20157;-72
2021/12/17 09:07:40;;;;;;;8.73;3.25;;;;;;;4.93;80.14;101643.25;4435205;32;20128;-73
2021/12/17 09:10:11;;;;;;;8.07;3.83;;;;;;;5.02;79.82;101635.72;4435231;31;20100;-72
2021/12/17 09:12:44;;;;;;;7.43;3.83;;;;;;;4.99;79.36;101636.50;4436086;32;20084;-72
2021/12/17 09:15:11;;;;;;;6.12;3.97;;;;;;;5.09;79.02;101629.84;4436768;32;20418;-73
2021/12/17 09:17:44;;;;;;;4.72;3.20;;;;;;;5.17;79.03;101632.69;4436848;32;20077;-73
2021/12/17 09:20:11;;;;;;;6.90;3.45;;;;;;;5.22;78.35;101637.19;4436783;31;20527;-71
2021/12/17 09:22:40;;;;;;;9.68;5.15;;;;;;;5.30;77.73;101618.22;4436852;32;20479;-72
2021/12/17 09:25:09;;;;;;;13.23;5.85;;;;;;;5.32;77.86;101633.13;4436823;32;20093;-72
2021/12/17 09:27:37;;;;;;;10.05;4.12;;;;;;;5.41;77.70;101624.69;4436902;32;20119;-72
2021/12/17 09:30:11;;;;;;;18.92;7.12;;;;;;;5.46;77.24;101628.31;4436907;32;20530;-71
2021/12/17 09:32:42;;;;;;;14.50;6.03;;;;;;;5.51;77.03;101640.69;4436595;32;20077;-71
2021/12/17 09:35:14;;;;;;;49.67;13.62;;;;;;;5.51;77.14;101638.06;4436769;32;20403;-69
2021/12/17 09:37:41;;;;;;;13.10;6.30;;;;;;;5.69;76.85;101642.94;4432107;31;20101;-71
2021/12/17 09:40:10;;;;;;;12.20;5.78;;;;;;;5.71;76.13;101648.19;4422892;32;20092;-70
2021/12/17 09:42:40;;;;;;;11.52;5.80;;;;;;;5.74;76.05;101648.28;4437547;31;20089;-70
2021/12/17 09:45:08;;;;;;;14.13;5.95;;;;;;;5.74;75.87;101637.81;4430443;31;20457;-71
2021/12/17 09:47:35;;;;;;;11.50;5.87;;;;;;;5.91;75.41;101640.91;4421773;32;20751;-71
2021/12/17 09:50:04;;;;;;;7.47;4.47;;;;;;;6.08;74.42;101629.19;4421992;32;20216;-72
2021/12/17 09:52:31;;;;;;;9.68;4.22;;;;;;;6.14;73.65;101629.34;4421981;32;20115;-70
2021/12/17 09:54:58;;;;;;;7.22;3.83;;;;;;;6.22;73.71;101633.06;4421846;32;20089;-70
2021/12/17 09:57:26;;;;;;;8.63;4.00;;;;;;;6.31;73.34;101637.63;4421839;32;20101;-71
2021/12/17 09:59:53;;;;;;;12.57;4.18;;;;;;;6.31;73.08;101636.75;4421683;32;20127;-71
2021/12/17 10:02:21;;;;;;;8.38;3.37;;;;;;;6.42;72.59;101635.28;4429727;32;20148;-71
2021/12/17 10:04:50;;;;;;;7.07;4.25;;;;;;;6.40;72.85;101632.66;4430288;32;20105;-71
2021/12/17 10:07:23;;;;;;;5.85;3.70;;;;;;;6.48;72.10;101630.22;4429028;32;20089;-72
2021/12/17 10:09:54;;;;;;;2.22;2.05;;;;;;;6.53;71.91;101633.81;4427883;32;20192;-72
2021/12/17 10:12:30;;;;;;;9.65;3.42;;;;;;;6.49;71.24;101616.25;4428853;32;20077;-71
2021/12/17 10:15:04;;;;;;;4.32;1.73;;;;;;;6.69;71.54;101616.75;4428532;32;20732;-71
2021/12/17 10:17:31;;;;;;;7.90;3.30;;;;;;;6.88;70.17;101616.31;4427601;32;20119;-71
2021/12/17 10:19:59;;;;;;;6.30;2.53;;;;;;;7.26;68.99;101623.28;4427679;32;20379;-71
2021/12/17 10:22:26;;;;;;;8.75;3.12;;;;;;;7.85;66.48;101631.47;4425390;32;20149;-70
2021/12/17 10:25:09;;;;;;;2.50;2.25;;;;;;;8.33;65.06;101620.09;4425226;32;20148;-71
2021/12/17 10:27:41;;;;;;;4.12;2.92;;;;;;;9.03;62.09;101615.97;4427286;32;20875;-71
2021/12/17 10:30:11;;;;;;;4.57;2.37;;;;;;;9.30;60.68;101615.47;4428129;32;20117;-71
2021/12/17 10:32:42;;;;;;;3.67;1.83;;;;;;;9.31;59.52;101616.34;4423640;32;20423;-72
2021/12/17 10:35:13;;;;;;;2.53;1.70;;;;;;;9.11;59.37;101623.94;4424588;32;20369;-72
2021/12/17 10:37:43;;;;;;;2.15;1.73;;;;;;;9.51;58.75;101635.03;4427932;32;20608;-71
2021/12/17 10:40:20;;;;;;;4.68;2.40;;;;;;;9.66;57.63;101624.66;4425518;32;20104;-70
2021/12/17 10:43:08;;;;;;;4.82;2.08;;;;;;;10.09;57.61;101613.72;4429596;32;20149;-70
2021/12/17 10:45:42;;;;;;;6.25;2.95;;;;;;;10.40;55.39;101605.25;4427337;32;20111;-72
2021/12/17 10:50:52;;;;;;;4.22;2.58;;;;;;;10.67;53.65;101588.78;4429883;32;20097;-70
2021/12/17 10:53:24;;;;;;;3.55;2.60;;;;;;;10.41;54.43;101598.22;4436076;32;20089;-72
2021/12/17 10:55:54;;;;;;;6.60;2.35;;;;;;;10.75;53.68;101602.03;4436542;32;20080;-72
2021/12/17 10:58:22;;;;;;;6.25;2.28;;;;;;;11.13;53.60;101593.44;4436145;32;20101;-72
2021/12/17 11:01:05;;;;;;;5.25;2.08;;;;;;;11.34;51.67;101593.56;4436606;32;20101;-72
2021/12/17 11:03:42;;;;;;;5.97;3.00;;;;;;;10.74;53.19;101601.12;4436983;32;20209;-71
2021/12/17 11:06:09;;;;;;;8.23;2.53;;;;;;;10.37;54.60;101605.22;4435953;32;20084;-71
2021/12/17 11:08:39;;;;;;;5.37;2.65;;;;;;;11.15;52.99;101579.37;4436195;32;20093;-71
2021/12/17 11:11:11;;;;;;;8.30;2.65;;;;;;;11.51;51.60;101575.13;4436690;32;20105;-71
2021/12/17 11:13:58;;;;;;;9.57;2.90;;;;;;;11.15;52.14;101582.03;4436624;32;20141;-70
2021/12/17 11:16:26;;;;;;;4.97;2.10;;;;;;;11.46;51.55;101583.03;4435731;32;20080;-71
2021/12/17 11:18:56;;;;;;;8.05;2.87;;;;;;;11.62;50.34;101568.13;4436604;32;20124;-71
2021/12/17 11:21:25;;;;;;;7.82;2.55;;;;;;;11.74;50.27;101585.78;4436571;32;20105;-71
2021/12/17 11:23:52;;;;;;;10.35;2.80;;;;;;;11.25;50.96;101568.00;4436280;31;20098;-71
2021/12/17 11:26:20;;;;;;;5.10;2.15;;;;;;;11.51;51.30;101569.84;4436432;32;20474;-70
2021/12/17 11:28:47;;;;;;;5.18;2.70;;;;;;;11.84;49.64;101574.38;4436261;32;21017;-71
2021/12/17 11:31:15;;;;;;;4.40;2.10;;;;;;;11.82;50.28;101577.88;4435539;32;20097;-71
2021/12/17 11:33:43;;;;;;;8.90;2.72;;;;;;;12.12;48.89;101569.13;4436181;32;20093;-71
2021/12/17 11:36:10;;;;;;;7.70;3.03;;;;;;;12.22;48.87;101570.88;4421673;32;20081;-71
2021/12/17 11:39:08;;;;;;;4.43;2.33;;;;;;;11.90;50.39;101571.75;4426369;32;20771;-71
2021/12/17 11:42:16;;;;;;;5.57;2.28;;;;;;;11.85;49.41;101578.78;4425145;32;20213;-71
2021/12/17 11:44:53;;;;;;;7.82;2.37;;;;;;;11.64;50.71;101565.50;4430116;32;20081;-71
2021/12/17 11:47:33;;;;;;;4.05;1.85;;;;;;;11.82;49.29;101581.38;4434560;32;20143;-72
2021/12/17 11:50:05;;;;;;;6.20;2.15;;;;;;;12.58;48.24;101566.47;4435774;32;20093;-72
2021/12/17 11:52:32;;;;;;;5.43;2.17;;;;;;;12.59;47.38;101573.53;4435976;32;20088;-72
2021/12/17 11:55:24;;;;;;;5.85;2.62;;;;;;;12.50;48.30;101562.97;4433459;32;20085;-72
2021/12/17 11:57:57;;;;;;;5.90;2.03;;;;;;;13.32;45.36;101559.25;4436229;32;20077;-71
2021/12/17 12:00:29;;;;;;;6.30;2.78;;;;;;;12.92;46.52;101549.66;4430785;32;20154;-71
2021/12/17 12:03:26;;;;;;;5.93;1.92;;;;;;;13.12;46.53;101552.25;4424158;32;20084;-71
2021/12/17 12:06:02;;;;;;;3.25;2.62;;;;;;;12.71;46.22;101546.19;4434339;32;20387;-71
2021/12/17 12:08:34;;;;;;;4.00;2.12;;;;;;;12.85;45.96;101553.19;4422376;32;20139;-72
2021/12/17 12:11:02;;;;;;;4.85;2.10;;;;;;;12.50;46.60;101550.62;4422871;32;20124;-72
2021/12/17 12:13:40;;;;;;;5.85;1.92;;;;;;;13.06;46.45;101556.66;4427036;32;20101;-71
2021/12/17 12:16:10;;;;;;;4.97;1.92;;;;;;;12.42;46.61;101539.19;4418968;32;20082;-71
2021/12/17 12:18:53;;;;;;;8.25;2.37;;;;;;;12.71;45.88;101525.91;4435854;32;20085;-72
2021/12/17 12:21:23;;;;;;;5.85;2.20;;;;;;;12.70;46.32;101525.91;4429052;32;20157;-71
2021/12/17 12:24:18;;;;;;;4.45;1.90;;;;;;;12.67;46.53;101535.59;4427866;32;20185;-72
2021/12/17 12:26:48;;;;;;;5.78;2.58;;;;;;;12.83;46.11;101543.53;4429738;32;20501;-70
2021/12/17 12:29:22;;;;;;;2.58;2.00;;;;;;;12.55;45.98;101527.72;4426124;32;20093;-71
2021/12/17 12:32:13;;;;;;;7.18;2.00;;;;;;;12.94;46.45;101554.97;4427932;32;20089;-71
2021/12/17 12:34:42;;;;;;;4.65;1.52;;;;;;;12.57;46.81;101543.56;4420254;32;20109;-71
2021/12/17 12:37:18;;;;;;;8.32;3.10;;;;;;;12.13;47.27;101560.34;4422100;32;20089;-71
2021/12/17 12:39:54;;;;;;;3.12;1.87;;;;;;;12.12;48.38;101535.69;4419145;32;20097;-70
2021/12/17 12:42:35;;;;;;;4.87;2.20;;;;;;;12.41;47.32;101554.16;4419885;32;20116;-69
2021/12/17 12:45:04;;;;;;;9.30;1.98;;;;;;;12.46;47.15;101554.16;4422445;32;20230;-69
2021/12/17 12:47:37;;;;;;;4.30;2.15;;;;;;;12.09;47.64;101554.16;4422513;32;20157;-69
2021/12/17 12:50:06;;;;;;;14.80;2.15;;;;;;;11.72;48.78;101550.56;4422447;32;20156;-70
2021/12/17 12:52:44;;;;;;;4.53;2.15;;;;;;;12.02;48.19;101562.09;4422204;32;20125;-70
2021/12/17 12:55:32;;;;;;;5.25;2.08;;;;;;;11.38;49.67;101555.75;4422448;32;20113;-69
2021/12/17 12:58:01;;;;;;;6.30;2.30;;;;;;;11.72;48.52;101563.75;4421879;32;20739;-69
2021/12/17 13:00:40;;;;;;;3.97;1.80;;;;;;;11.39;48.94;101560.16;4422259;32;20766;-69
2021/12/17 13:03:10;;;;;;;10.55;1.95;;;;;;;11.72;48.38;101564.63;4422485;32;20093;-69
2021/12/17 13:05:40;;;;;;;5.22;1.90;;;;;;;11.81;48.51;101573.47;4424051;32;20522;-69
2021/12/17 13:08:14;;;;;;;4.90;2.17;;;;;;;11.59;49.09;101572.50;4428578;32;21037;-70
2021/12/17 13:10:50;;;;;;;6.25;2.08;;;;;;;10.92;50.47;101566.09;4429232;32;20131;-70
2021/12/17 13:16:09;;;;;;;4.70;2.30;;;;;;;11.15;50.00;101571.47;4433787;32;20120;-70
2021/12/17 13:23:56;;;;;;;9.43;1.85;;;;;;;11.55;48.91;101573.38;4429420;32;20220;-71
2021/12/17 13:26:26;;;;;;;3.60;1.73;;;;;;;12.10;47.35;101576.19;4428007;32;20151;-71
2021/12/17 13:29:05;;;;;;;5.65;2.55;;;;;;;12.52;46.28;101567.38;4427852;32;20448;-71
2021/12/17 13:31:41;;;;;;;5.28;1.80;;;;;;;12.46;46.63;101571.78;4427263;32;20109;-70
2021/12/17 13:34:11;;;;;;;6.12;1.83;;;;;;;11.96;47.62;101569.13;4426863;32;20093;-70
2021/12/17 13:36:54;;;;;;;12.30;2.25;;;;;;;12.57;48.04;101570.00;4428771;32;20131;-70
2021/12/17 13:39:23;;;;;;;3.72;2.05;;;;;;;12.62;46.86;101555.03;4426635;32;20089;-70
2021/12/17 13:41:51;;;;;;;10.20;2.45;;;;;;;12.71;45.75;101570.84;4428023;32;20088;-70
2021/12/17 13:44:41;;;;;;;3.42;1.70;;;;;;;13.04;47.14;101559.34;4434629;32;20563;-70
2021/12/17 13:47:08;;;;;;;6.82;2.15;;;;;;;12.57;45.64;101570.88;4421080;32;20136;-70
2021/12/17 13:49:36;;;;;;;2.75;1.80;;;;;;;12.04;47.04;101560.31;4421143;32;20149;-70
2021/12/17 13:52:04;;;;;;;5.43;2.47;;;;;;;11.79;47.41;101562.87;4421062;32;20097;-70
2021/12/17 13:54:32;;;;;;;3.85;2.28;;;;;;;11.60;47.70;101561.97;4425652;32;20120;-70
2021/12/17 13:57:02;;;;;;;5.25;2.62;;;;;;;11.66;47.78;101556.72;4431568;32;20109;-70
2021/12/17 13:59:36;;;;;;;6.65;2.03;;;;;;;11.49;48.44;101567.22;4428594;32;20135;-70
2021/12/17 14:02:08;;;;;;;7.07;2.10;;;;;;;10.74;49.64;101555.41;4425182;32;20119;-70
2021/12/17 14:04:36;;;;;;;7.05;2.15;;;;;;;9.99;51.84;101539.00;4424010;32;20819;-70
2021/12/17 14:07:05;;;;;;;8.02;2.60;;;;;;;9.72;52.84;101545.78;4420474;32;20109;-70
2021/12/17 14:09:33;;;;;;;6.47;2.60;;;;;;;9.53;53.25;101551.72;4430543;32;20110;-70
2021/12/17 14:12:12;;;;;;;7.95;2.22;;;;;;;9.22;54.42;101548.75;4426462;32;20085;-72
2021/12/17 14:15:04;;;;;;;3.28;1.10;;;;;;;8.53;55.99;101554.78;4425742;32;20101;-70
2021/12/17 14:17:37;;;;;;;4.72;2.25;;;;;;;8.02;57.49;101556.56;4428869;32;20459;-70
2021/12/17 14:20:09;;;;;;;5.80;1.98;;;;;;;7.59;59.21;101552.25;4426820;32;20136;-70
2021/12/17 14:22:42;;;;;;;5.50;2.30;;;;;;;7.07;61.10;101551.25;4424149;32;20077;-70
2021/12/17 14:25:30;;;;;;;4.65;1.67;;;;;;;6.70;62.62;101543.44;4420873;32;20090;-70
2021/12/17 14:28:11;;;;;;;7.82;1.90;;;;;;;6.46;63.10;101543.75;4425734;32;20161;-69
2021/12/17 14:30:40;;;;;;;5.10;1.85;;;;;;;6.34;63.81;101545.22;4423386;32;20089;-69
2021/12/17 14:33:13;;;;;;;5.30;1.92;;;;;;;6.23;64.70;101531.87;4420697;32;20124;-70
2021/12/17 14:35:50;;;;;;;3.35;1.55;;;;;;;6.23;64.45;101550.19;4420533;32;20113;-70
2021/12/17 14:38:21;;;;;;;9.20;2.65;;;;;;;6.06;65.42;101541.91;4420937;32;20109;-70
2021/12/17 14:40:58;;;;;;;8.50;2.78;;;;;;;5.86;66.58;101548.31;4421196;32;20093;-70
2021/12/17 14:43:38;;;;;;;4.75;2.17;;;;;;;5.74;67.07;101554.12;4420401;32;20093;-70
2021/12/17 14:46:31;;;;;;;4.25;1.87;;;;;;;5.68;67.52;101552.22;4420647;32;20085;-70
2021/12/17 14:49:23;;;;;;;6.07;2.10;;;;;;;5.55;68.19;101559.69;4420469;32;20148;-70
2021/12/17 15:03:38;;;;;;;6.90;2.60;;;;;;;5.18;70.70;101575.22;4435819;31;20176;-70
2021/12/17 15:06:15;;;;;;;9.35;2.75;;;;;;;5.11;71.10;101585.47;4436026;32;20085;-70
2021/12/17 15:08:43;;;;;;;6.18;2.47;;;;;;;5.06;71.29;101587.94;4434003;32;20373;-70
2021/12/17 15:11:28;;;;;;;8.48;2.50;;;;;;;5.02;71.43;101586.97;4420168;32;20180;-70
2021/12/17 15:13:55;;;;;;;5.68;2.55;;;;;;;4.98;71.80;101578.97;4423850;32;20407;-70
2021/12/17 15:16:23;;;;;;;6.93;2.28;;;;;;;4.92;71.97;101574.47;4435699;32;20183;-70
2021/12/17 15:18:51;;;;;;;5.80;2.70;;;;;;;4.92;71.90;101570.97;4435474;31;20101;-70